sensor_id;sensor_type;location;lat;lon;timestamp;P1;durP1;ratioP1;P2;durP2;ratioP2
40537;SDS011;27925;41.874;12.526;2023-03-24T01:35:29;16.02;;;10.80;;
40537;SDS011;27925;41.874;12.526;2023-03-24T01:37:55;19.48;;;10.75;;
40537;SDS011;27925;41.874;12.526;2023-03-24T01:40:26;17.83;;;10.85;;
40537;SDS011;27925;41.874;12.526;2023-03-24T01:42:54;17.30;;;12.05;;
40537;SDS011;27925;41.874;12.526;2023-03-24T01:50:33;16.45;;;11.07;;
40537;SDS011;27925;41.874;12.526;2023-03-24T01:52:59;17.17;;;11.20;;
40537;SDS011;27925;41.874;12.526;2023-03-24T01:55:25;19.65;;;11.90;;
40537;SDS011;27925;41.874;12.526;2023-03-24T01:57:55;20.77;;;12.30;;
40537;SDS011;27925;41.874;12.526;2023-03-24T02:00:24;18.60;;;11.55;;
40537;SDS011;27925;41.874;12.526;2023-03-24T02:02:55;18.92;;;11.27;;
40537;SDS011;27925;41.874;12.526;2023-03-24T02:10:50;18.23;;;11.10;;
40537;SDS011;27925;41.874;12.526;2023-03-24T02:13:18;16.40;;;11.07;;
40537;SDS011;27925;41.874;12.526;2023-03-24T02:15:50;16.83;;;11.82;;
40537;SDS011;27925;41.874;12.526;2023-03-24T02:24:19;16.35;;;10.98;;
40537;SDS011;27925;41.874;12.526;2023-03-24T02:46:21;14.00;;;10.40;;
40537;SDS011;27925;41.874;12.526;2023-03-24T02:49:01;12.93;;;10.20;;
40537;SDS011;27925;41.874;12.526;2023-03-24T02:54:20;17.30;;;10.27;;
40537;SDS011;27925;41.874;12.526;2023-03-24T03:02:13;15.63;;;10.75;;
40537;SDS011;27925;41.874;12.526;2023-03-24T03:04:46;14.57;;;10.10;;
40537;SDS011;27925;41.874;12.526;2023-03-24T03:07:20;15.88;;;10.02;;
40537;SDS011;27925;41.874;12.526;2023-03-24T03:10:03;13.50;;;9.77;;
40537;SDS011;27925;41.874;12.526;2023-03-24T03:12:45;15.00;;;9.35;;
40537;SDS011;27925;41.874;12.526;2023-03-24T03:15:24;14.85;;;9.60;;
40537;SDS011;27925;41.874;12.526;2023-03-24T03:18:00;15.30;;;10.45;;
40537;SDS011;27925;41.874;12.526;2023-03-24T03:20:30;14.05;;;10.02;;
40537;SDS011;27925;41.874;12.526;2023-03-24T03:23:03;20.92;;;11.02;;
40537;SDS011;27925;41.874;12.526;2023-03-24T03:25:34;14.73;;;10.65;;
40537;SDS011;27925;41.874;12.526;2023-03-24T03:28:06;15.05;;;9.57;;
40537;SDS011;27925;41.874;12.526;2023-03-24T03:30:36;15.40;;;10.48;;
40537;SDS011;27925;41.874;12.526;2023-03-24T03:33:24;14.70;;;10.00;;
40537;SDS011;27925;41.874;12.526;2023-03-24T03:36:02;14.43;;;9.93;;
40537;SDS011;27925;41.874;12.526;2023-03-24T03:41:39;14.55;;;9.10;;
40537;SDS011;27925;41.874;12.526;2023-03-24T03:44:07;15.10;;;10.02;;
40537;SDS011;27925;41.874;12.526;2023-03-24T03:46:34;17.90;;;10.23;;
40537;SDS011;27925;41.874;12.526;2023-03-24T03:49:00;15.48;;;9.73;;
40537;SDS011;27925;41.874;12.526;2023-03-24T03:51:27;12.45;;;9.63;;
40537;SDS011;27925;41.874;12.526;2023-03-24T03:53:55;13.52;;;9.63;;
40537;SDS011;27925;41.874;12.526;2023-03-24T03:56:25;15.13;;;9.60;;
40537;SDS011;27925;41.874;12.526;2023-03-24T03:58:52;12.38;;;9.40;;
40537;SDS011;27925;41.874;12.526;2023-03-24T04:01:22;14.13;;;9.00;;
40537;SDS011;27925;41.874;12.526;2023-03-24T04:19:56;12.00;;;8.82;;
40537;SDS011;27925;41.874;12.526;2023-03-24T04:22:43;13.05;;;8.00;;
40537;SDS011;27925;41.874;12.526;2023-03-24T04:31:48;14.30;;;9.60;;
40537;SDS011;27925;41.874;12.526;2023-03-24T04:33:51;12.27;;;8.57;;
40537;SDS011;27925;41.874;12.526;2023-03-24T04:38:58;14.10;;;8.52;;
40537;SDS011;27925;41.874;12.526;2023-03-24T04:41:25;12.38;;;8.38;;
40537;SDS011;27925;41.874;12.526;2023-03-24T04:43:54;12.23;;;8.35;;
40537;SDS011;27925;41.874;12.526;2023-03-24T04:46:22;11.68;;;8.00;;
40537;SDS011;27925;41.874;12.526;2023-03-24T04:48:48;10.45;;;6.45;;
40537;SDS011;27925;41.874;12.526;2023-03-24T04:51:15;11.35;;;7.03;;
40537;SDS011;27925;41.874;12.526;2023-03-24T04:53:43;9.45;;;6.32;;
40537;SDS011;27925;41.874;12.526;2023-03-24T04:59:00;8.98;;;6.93;;
40537;SDS011;27925;41.874;12.526;2023-03-24T05:01:26;13.55;;;7.05;;
40537;SDS011;27925;41.874;12.526;2023-03-24T05:03:56;13.77;;;6.40;;
40537;SDS011;27925;41.874;12.526;2023-03-24T05:06:22;11.23;;;7.03;;
40537;SDS011;27925;41.874;12.526;2023-03-24T05:08:49;13.27;;;7.60;;
40537;SDS011;27925;41.874;12.526;2023-03-24T05:11:16;9.20;;;7.32;;
40537;SDS011;27925;41.874;12.526;2023-03-24T05:13:43;12.40;;;7.25;;
40537;SDS011;27925;41.874;12.526;2023-03-24T05:16:09;9.77;;;6.75;;
40537;SDS011;27925;41.874;12.526;2023-03-24T05:18:35;10.75;;;6.55;;
40537;SDS011;27925;41.874;12.526;2023-03-24T05:21:01;13.27;;;7.57;;
40537;SDS011;27925;41.874;12.526;2023-03-24T05:23:26;14.63;;;8.13;;
40537;SDS011;27925;41.874;12.526;2023-03-24T05:25:52;10.40;;;7.68;;
40537;SDS011;27925;41.874;12.526;2023-03-24T05:28:18;14.80;;;8.68;;
40537;SDS011;27925;41.874;12.526;2023-03-24T05:30:43;21.42;;;11.00;;
40537;SDS011;27925;41.874;12.526;2023-03-24T05:33:09;15.10;;;10.27;;
40537;SDS011;27925;41.874;12.526;2023-03-24T05:35:35;15.73;;;11.00;;
40537;SDS011;27925;41.874;12.526;2023-03-24T05:38:00;13.20;;;10.35;;
40537;SDS011;27925;41.874;12.526;2023-03-24T05:40:26;17.23;;;11.88;;
40537;SDS011;27925;41.874;12.526;2023-03-24T05:42:52;18.02;;;12.65;;
40537;SDS011;27925;41.874;12.526;2023-03-24T05:45:18;16.95;;;12.98;;
40537;SDS011;27925;41.874;12.526;2023-03-24T05:47:44;20.17;;;13.25;;
40537;SDS011;27925;41.874;12.526;2023-03-24T05:50:11;20.10;;;12.60;;
40537;SDS011;27925;41.874;12.526;2023-03-24T05:52:37;18.67;;;12.93;;
40537;SDS011;27925;41.874;12.526;2023-03-24T05:55:03;20.85;;;13.80;;
40537;SDS011;27925;41.874;12.526;2023-03-24T05:57:29;19.25;;;13.43;;
40537;SDS011;27925;41.874;12.526;2023-03-24T05:59:55;21.02;;;14.45;;
40537;SDS011;27925;41.874;12.526;2023-03-24T06:02:21;17.08;;;13.25;;
40537;SDS011;27925;41.874;12.526;2023-03-24T06:04:48;24.90;;;13.68;;
40537;SDS011;27925;41.874;12.526;2023-03-24T06:07:16;22.75;;;14.15;;
40537;SDS011;27925;41.874;12.526;2023-03-24T06:09:42;18.73;;;14.48;;
40537;SDS011;27925;41.874;12.526;2023-03-24T06:12:11;20.90;;;13.73;;
40537;SDS011;27925;41.874;12.526;2023-03-24T06:14:37;22.45;;;14.60;;
40537;SDS011;27925;41.874;12.526;2023-03-24T06:17:06;21.42;;;13.63;;
40537;SDS011;27925;41.874;12.526;2023-03-24T06:19:32;22.35;;;14.15;;
40537;SDS011;27925;41.874;12.526;2023-03-24T06:21:58;22.05;;;15.23;;
40537;SDS011;27925;41.874;12.526;2023-03-24T06:24:26;25.75;;;14.98;;
40537;SDS011;27925;41.874;12.526;2023-03-24T06:26:53;20.15;;;14.45;;
40537;SDS011;27925;41.874;12.526;2023-03-24T06:29:26;21.67;;;13.57;;
40537;SDS011;27925;41.874;12.526;2023-03-24T06:31:55;20.13;;;13.05;;
40537;SDS011;27925;41.874;12.526;2023-03-24T06:34:21;21.42;;;13.93;;
40537;SDS011;27925;41.874;12.526;2023-03-24T06:36:49;24.02;;;12.43;;
40537;SDS011;27925;41.874;12.526;2023-03-24T06:39:14;20.95;;;13.90;;
40537;SDS011;27925;41.874;12.526;2023-03-24T06:41:40;26.58;;;14.27;;
40537;SDS011;27925;41.874;12.526;2023-03-24T06:44:06;18.40;;;13.45;;
40537;SDS011;27925;41.874;12.526;2023-03-24T06:46:32;24.55;;;13.85;;
40537;SDS011;27925;41.874;12.526;2023-03-24T06:48:57;22.88;;;13.95;;
40537;SDS011;27925;41.874;12.526;2023-03-24T06:51:23;21.95;;;13.73;;
40537;SDS011;27925;41.874;12.526;2023-03-24T06:53:49;22.52;;;16.05;;
40537;SDS011;27925;41.874;12.526;2023-03-24T06:56:15;19.15;;;14.02;;
40537;SDS011;27925;41.874;12.526;2023-03-24T06:58:42;22.13;;;13.45;;
40537;SDS011;27925;41.874;12.526;2023-03-24T07:01:08;25.88;;;14.60;;
40537;SDS011;27925;41.874;12.526;2023-03-24T07:03:35;20.05;;;15.05;;
40537;SDS011;27925;41.874;12.526;2023-03-24T07:06:01;25.48;;;14.80;;
40537;SDS011;27925;41.874;12.526;2023-03-24T07:08:27;20.77;;;14.30;;
40537;SDS011;27925;41.874;12.526;2023-03-24T07:10:53;22.67;;;14.95;;
40537;SDS011;27925;41.874;12.526;2023-03-24T07:13:18;19.73;;;14.82;;
40537;SDS011;27925;41.874;12.526;2023-03-24T07:15:44;18.70;;;14.88;;
40537;SDS011;27925;41.874;12.526;2023-03-24T07:18:10;17.92;;;14.13;;
40537;SDS011;27925;41.874;12.526;2023-03-24T07:20:37;21.52;;;13.63;;
40537;SDS011;27925;41.874;12.526;2023-03-24T07:23:03;19.42;;;13.65;;
40537;SDS011;27925;41.874;12.526;2023-03-24T07:25:29;22.48;;;14.68;;
40537;SDS011;27925;41.874;12.526;2023-03-24T07:27:55;22.30;;;17.48;;
40537;SDS011;27925;41.874;12.526;2023-03-24T07:30:21;23.90;;;14.38;;
40537;SDS011;27925;41.874;12.526;2023-03-24T07:32:48;20.25;;;14.40;;
40537;SDS011;27925;41.874;12.526;2023-03-24T23:21:41;19.35;;;14.50;;
40537;SDS011;27925;41.874;12.526;2023-03-24T23:24:07;18.10;;;13.95;;
40537;SDS011;27925;41.874;12.526;2023-03-24T23:26:33;16.48;;;14.00;;
40537;SDS011;27925;41.874;12.526;2023-03-24T23:28:59;18.13;;;14.32;;
40537;SDS011;27925;41.874;12.526;2023-03-24T23:31:25;17.27;;;14.35;;
40537;SDS011;27925;41.874;12.526;2023-03-24T23:33:53;15.13;;;12.90;;
40537;SDS011;27925;41.874;12.526;2023-03-24T23:36:20;15.13;;;12.15;;
40537;SDS011;27925;41.874;12.526;2023-03-24T23:38:50;17.27;;;13.32;;
40537;SDS011;27925;41.874;12.526;2023-03-24T23:41:17;17.02;;;14.25;;
40537;SDS011;27925;41.874;12.526;2023-03-24T23:43:46;18.27;;;13.13;;
40537;SDS011;27925;41.874;12.526;2023-03-24T23:46:13;16.63;;;12.43;;
40537;SDS011;27925;41.874;12.526;2023-03-24T23:48:39;17.80;;;12.90;;
40537;SDS011;27925;41.874;12.526;2023-03-24T23:51:05;19.02;;;14.00;;
40537;SDS011;27925;41.874;12.526;2023-03-24T23:53:32;16.10;;;13.75;;
40537;SDS011;27925;41.874;12.526;2023-03-24T23:55:58;19.65;;;13.32;;
40537;SDS011;27925;41.874;12.526;2023-03-24T23:58:26;17.23;;;13.90;;
